Crandall, Texas
Current Conditions -  °F | °C
As of 9:15 PM on Saturday 20 Dec 2014 (Local Time) from KHQZ Reporting Station
Overcast Overcast  
Wind Chill: 47°   Ceiling: 3300
Heat Index: 47°   Visibility: 7mi
Dew Point: 45°   Wind: 0mph
Humidity: 92%   Direction: NA
Pressure: 30.2"   Gusts: NA
Location:  32.63°N, 96.46°W
Report Text: KHQZ 210315Z AUTO 00000KT 7SM OVC033 08/07 A3020 RMK AO1 T00830070
Loading
Personal Weather Stations






























Interactive Weather Map New forecast layout! Learn more

10-Day Weather Forecast

Advertisements
Track Severe Weather on mobile